Terminal Aerodrome Forecast
Issued by NWS

Home | Current Version | Previous Version | Text Only | Print | Product List | Glossary On
Versions: 1 2 3 4 5 6 7 8 9 10 11 12 13 14
000
FTUS44 KEPZ 281720
TAFTCS
TAF
KTCS 281720Z 2818/2918 06007KT P6SM SCT070 BKN150
     FM282000 06008KT P6SM VCTS SCT070CB BKN150
      TEMPO 2820/2824 VRB25G40KT 2SM TSRA BKN040CB
     FM290200 35006KT P6SM SCT080 BKN200
     FM291000 01010KT P6SM FEW080 SCT200=

USA.gov is the U.S. government's official web portal to all federal, state and local government web resources and services.